Time;durP1;ratioP1;P1;durP2;ratioP2;P2;SDS_P1;SDS_P2;PMS_P1;PMS_P2;Temp;Humidity;BMP_temperature;BMP_pressure;BME280_temperature;BME280_humidity;BME280_pressure;Samples;Min_cycle;Max_cycle;Signal;HPM_P1;HPM_P2
2021/06/22 18:16:36;;;;;;;;;22.50;20.75;;;;;22.37;47.89;101328.09;5006293;28;45305;-76
2021/06/22 18:19:02;;;;;;;;;19.25;17.75;;;;;21.79;48.74;101329.59;4989903;28;45314;-76
2021/06/22 18:21:27;;;;;;;;;25.25;21.50;;;;;21.18;50.12;101335.22;4989374;28;45306;-80
2021/06/22 18:23:53;;;;;;;;;27.75;25.25;;;;;20.71;51.40;101332.06;4990396;28;45429;-76
2021/06/22 18:26:20;;;;;;;;;24.25;23.50;;;;;20.42;52.63;101336.97;4987815;28;46323;-79
2021/06/22 18:28:45;;;;;;;;;24.00;21.75;;;;;20.26;52.88;101342.06;4988158;28;46837;-80
2021/06/22 18:31:11;;;;;;;;;24.50;24.50;;;;;20.05;53.69;101344.38;4991783;27;45339;-80
2021/06/22 18:33:38;;;;;;;;;26.25;23.00;;;;;19.82;54.30;101351.88;4989048;28;45315;-79
2021/06/22 18:36:04;;;;;;;;;28.00;26.25;;;;;19.57;54.00;101349.75;4989686;28;46500;-81
2021/06/22 18:38:30;;;;;;;;;26.50;25.50;;;;;19.36;54.51;101346.78;4990047;28;45338;-86
2021/06/22 18:40:56;;;;;;;;;28.75;24.75;;;;;19.24;54.96;101363.22;4992654;28;45358;-92
2021/06/22 18:43:22;;;;;;;;;26.75;22.00;;;;;19.04;54.85;101363.75;4993185;28;45445;-87
2021/06/22 18:45:48;;;;;;;;;26.75;22.25;;;;;18.94;55.61;101364.41;4990743;28;46213;-82
2021/06/22 18:48:14;;;;;;;;;26.00;24.25;;;;;18.86;55.62;101369.47;4989982;28;45347;-81
2021/06/22 18:50:42;;;;;;;;;28.25;26.00;;;;;18.77;55.97;101385.91;4991342;28;45523;-83
2021/06/22 18:53:10;;;;;;;;;24.00;23.00;;;;;18.68;56.27;101383.09;4989401;28;45469;-85
2021/06/22 18:55:36;;;;;;;;;27.75;26.50;;;;;18.60;56.49;101389.94;4988248;27;46740;-86
2021/06/22 18:58:04;;;;;;;;;29.75;25.50;;;;;18.54;56.87;101391.56;4996946;28;45299;-80
2021/06/22 19:00:31;;;;;;;;;27.25;24.75;;;;;18.53;56.99;101397.66;4993090;28;45464;-88
2021/06/22 19:02:57;;;;;;;;;34.00;31.00;;;;;18.51;57.03;101402.00;4991732;28;45446;-87
2021/06/22 19:05:23;;;;;;;;;32.50;28.75;;;;;18.47;56.80;101404.50;4992857;28;47799;-87
2021/06/22 19:07:48;;;;;;;;;28.50;27.00;;;;;18.37;57.38;101413.91;4988819;28;45332;-79
2021/06/22 19:10:16;;;;;;;;;37.50;31.50;;;;;18.33;57.76;101404.19;4989048;28;45153;-82
2021/06/22 19:12:42;;;;;;;;;39.00;34.00;;;;;18.25;57.95;101410.16;4989368;28;45374;-81
2021/06/22 19:15:09;;;;;;;;;31.25;29.50;;;;;18.18;58.13;101415.22;4996654;27;46505;-81
2021/06/22 19:17:35;;;;;;;;;35.75;32.75;;;;;18.19;58.35;101411.75;5008488;28;45410;-80
2021/06/22 19:20:07;;;;;;;;;35.75;32.00;;;;;18.09;58.53;101415.88;5007983;28;45363;-79
2021/06/22 19:22:33;;;;;;;;;35.75;29.00;;;;;18.09;58.67;101406.31;4990913;28;45960;-80
2021/06/22 19:24:59;;;;;;;;;37.50;32.75;;;;;17.95;58.88;101408.56;5010043;27;45642;-79
2021/06/22 19:27:24;;;;;;;;;36.50;32.75;;;;;17.89;59.31;101415.41;4999460;27;45487;-80
2021/06/22 19:29:51;;;;;;;;;37.25;31.25;;;;;17.86;59.27;101413.59;4994352;28;45444;-79
2021/06/22 19:32:16;;;;;;;;;42.50;34.50;;;;;17.89;59.48;101411.03;4993631;28;45518;-78
2021/06/22 19:34:42;;;;;;;;;32.25;31.75;;;;;17.88;58.91;101406.63;4993884;28;46332;-78
2021/06/22 19:37:08;;;;;;;;;34.00;31.25;;;;;17.88;59.00;101417.13;4993202;28;45604;-78
2021/06/22 19:39:34;;;;;;;;;35.75;31.50;;;;;17.84;59.49;101425.78;4994410;28;45503;-77
2021/06/22 19:42:00;;;;;;;;;42.75;34.75;;;;;17.90;59.03;101418.03;4991816;28;45378;-77
2021/06/22 19:44:25;;;;;;;;;39.00;34.00;;;;;17.93;58.98;101426.00;4976468;28;46992;-77
2021/06/22 19:46:51;;;;;;;;;45.25;37.75;;;;;17.92;59.04;101420.72;4993927;28;45380;-77
2021/06/22 19:49:16;;;;;;;;;37.50;33.00;;;;;17.84;59.16;101425.78;4994163;28;45238;-78
2021/06/22 19:51:42;;;;;;;;;30.25;25.50;;;;;17.74;59.40;101421.16;4994824;28;45370;-78
2021/06/22 19:54:08;;;;;;;;;42.50;33.25;;;;;17.73;59.09;101437.72;4994941;27;45456;-78
2021/06/22 19:56:35;;;;;;;;;34.75;31.25;;;;;17.75;59.11;101436.88;4978856;28;45473;-83
2021/06/22 19:59:01;;;;;;;;;38.00;32.00;;;;;17.71;59.59;101442.88;4977162;28;45420;-76
2021/06/22 20:01:26;;;;;;;;;40.50;36.00;;;;;17.68;59.66;101441.94;4977594;28;45644;-77
2021/06/22 20:03:52;;;;;;;;;41.00;34.75;;;;;17.68;59.92;101442.84;4976966;28;46784;-77
2021/06/22 20:06:17;;;;;;;;;41.50;35.25;;;;;17.65;59.88;101445.38;4995116;28;45405;-77
2021/06/22 20:08:43;;;;;;;;;35.75;30.75;;;;;17.67;59.86;101454.16;4977158;28;45407;-78
2021/06/22 20:11:10;;;;;;;;;34.00;30.25;;;;;17.72;60.08;101447.28;4995497;28;45231;-78
2021/06/22 20:13:35;;;;;;;;;34.75;32.25;;;;;17.65;60.26;101447.97;4994557;27;45434;-78
2021/06/22 20:16:01;;;;;;;;;39.50;34.50;;;;;17.64;60.27;101446.22;4993940;28;45475;-78
2021/06/22 20:18:27;;;;;;;;;41.00;34.75;;;;;17.60;60.13;101445.25;4995036;28;45282;-77
2021/06/22 20:20:53;;;;;;;;;38.25;33.50;;;;;17.62;60.40;101450.50;4993951;27;45257;-76
2021/06/22 20:23:19;;;;;;;;;40.25;33.75;;;;;17.62;60.33;101446.19;4994186;27;46413;-77
2021/06/22 20:25:44;;;;;;;;;37.50;32.25;;;;;17.52;60.33;101454.63;4976174;28;45366;-75
2021/06/22 20:28:10;;;;;;;;;38.75;33.25;;;;;17.49;60.53;101452.81;4976609;28;45476;-77
2021/06/22 20:30:35;;;;;;;;;36.50;33.00;;;;;17.54;60.17;101455.56;4994127;28;45562;-76
2021/06/22 20:33:02;;;;;;;;;35.25;32.25;;;;;17.51;60.53;101452.88;4993462;28;46215;-77
2021/06/22 20:35:27;;;;;;;;;40.50;33.00;;;;;17.55;60.00;101459.94;4991036;28;45466;-77
2021/06/22 20:37:53;;;;;;;;;44.50;34.00;;;;;17.57;60.44;101470.47;4992714;27;45532;-77
2021/06/22 20:40:19;;;;;;;;;38.00;34.50;;;;;17.55;60.59;101473.03;4994106;27;45456;-80
2021/06/22 20:42:45;;;;;;;;;32.00;30.25;;;;;17.48;61.04;101478.94;4991385;28;45651;-80
2021/06/22 20:45:12;;;;;;;;;34.00;32.00;;;;;17.49;60.74;101475.50;4974185;28;45637;-79
2021/06/22 20:47:38;;;;;;;;;35.50;31.25;;;;;17.43;61.03;101484.06;4975314;28;45405;-77
2021/06/22 20:50:06;;;;;;;;;36.75;33.00;;;;;17.46;60.92;101478.03;4994138;27;45549;-78
2021/06/22 20:52:31;;;;;;;;;35.25;33.75;;;;;17.55;60.62;101487.88;4976306;28;47309;-78
2021/06/22 20:54:57;;;;;;;;;37.00;31.75;;;;;17.52;61.02;101486.06;4976103;28;45611;-78
2021/06/22 20:57:23;;;;;;;;;38.50;32.75;;;;;17.47;60.96;101493.78;4993761;27;45498;-78
2021/06/22 20:59:49;;;;;;;;;37.75;32.75;;;;;17.44;61.16;101482.34;4993521;28;45509;-79
2021/06/22 21:02:15;;;;;;;;;40.25;35.25;;;;;17.54;60.94;101507.94;4994216;28;45327;-80
2021/06/22 21:04:41;;;;;;;;;37.00;31.25;;;;;17.47;61.00;101499.03;4995251;28;45301;-81
2021/06/22 21:07:06;;;;;;;;;43.50;35.75;;;;;17.44;60.85;101501.53;4976560;28;45395;-80
2021/06/22 21:09:32;;;;;;;;;40.00;32.75;;;;;17.49;61.21;101502.53;4994707;28;45530;-80
2021/06/22 21:11:57;;;;;;;;;39.25;34.50;;;;;17.53;60.86;101502.63;4993951;28;46393;-81
2021/06/22 21:14:23;;;;;;;;;34.75;31.75;;;;;17.58;60.65;101504.53;4993523;27;45608;-81
2021/06/22 21:16:49;;;;;;;;;42.25;34.50;;;;;17.63;60.78;101502.94;4994104;28;45442;-82
2021/06/22 21:19:14;;;;;;;;;39.00;34.00;;;;;17.63;60.49;101494.19;4994374;28;45455;-83
2021/06/22 21:21:40;;;;;;;;;38.00;33.50;;;;;17.60;60.67;101497.63;4994272;28;45898;-81
2021/06/22 21:24:06;;;;;;;;;37.50;33.25;;;;;17.59;61.04;101498.47;4994018;28;45894;-80
2021/06/22 21:26:32;;;;;;;;;38.50;32.25;;;;;17.50;60.85;101495.59;4994640;28;45405;-80
2021/06/22 21:28:58;;;;;;;;;36.25;33.50;;;;;17.46;61.29;101504.19;4994837;28;45636;-81
2021/06/22 21:31:25;;;;;;;;;39.75;33.25;;;;;17.46;61.17;101507.72;4994343;28;45624;-81
2021/06/22 21:33:51;;;;;;;;;40.50;34.50;;;;;17.50;60.91;101498.22;4993742;28;45328;-81
2021/06/22 21:36:17;;;;;;;;;40.25;34.50;;;;;17.42;61.24;101507.59;4993951;28;45451;-79
2021/06/22 21:38:42;;;;;;;;;45.25;36.50;;;;;17.41;61.42;101505.81;4994383;27;45253;-78
2021/06/22 21:41:09;;;;;;;;;40.25;34.00;;;;;17.39;61.93;101517.97;4994220;27;46419;-80
2021/06/22 21:43:37;;;;;;;;;38.00;32.50;;;;;17.31;61.48;101512.50;4993879;28;46035;-80
2021/06/22 21:46:03;;;;;;;;;40.00;32.00;;;;;17.28;61.80;101509.78;4976631;28;45436;-81
2021/06/22 21:48:29;;;;;;;;;36.00;31.00;;;;;17.33;61.44;101519.56;4993970;27;45403;-80
2021/06/22 21:50:54;;;;;;;;;43.00;31.50;;;;;17.31;61.77;101521.28;4992960;28;45349;-81
2021/06/22 21:53:21;;;;;;;;;40.50;33.00;;;;;17.36;61.67;101523.09;4993623;28;45290;-81
2021/06/22 21:55:47;;;;;;;;;38.25;32.50;;;;;17.37;61.86;101525.78;4978916;28;45417;-79
2021/06/22 21:58:14;;;;;;;;;35.25;31.00;;;;;17.45;61.24;101531.22;4999071;28;45359;-78
2021/06/22 22:00:40;;;;;;;;;38.50;32.75;;;;;17.39;61.65;101534.53;4997808;28;46173;-81
2021/06/22 22:03:07;;;;;;;;;39.25;32.75;;;;;17.26;62.12;101530.69;4995829;27;45410;-81
2021/06/22 22:05:33;;;;;;;;;36.50;32.75;;;;;17.38;61.83;101531.91;4994783;27;45383;-79
2021/06/22 22:07:58;;;;;;;;;37.25;30.50;;;;;17.28;62.19;101529.03;4994317;28;45656;-81
2021/06/22 22:10:25;;;;;;;;;41.75;32.75;;;;;17.22;62.38;101535.81;4993684;27;45249;-80
2021/06/22 22:12:51;;;;;;;;;40.00;33.00;;;;;17.23;62.24;101541.06;4994161;28;45803;-82
2021/06/22 22:15:19;;;;;;;;;37.25;32.00;;;;;17.24;62.39;101539.38;4993171;28;45434;-81
2021/06/22 22:17:46;;;;;;;;;43.25;32.25;;;;;17.24;62.20;101539.38;4993568;28;45529;-82
2021/06/22 22:20:15;;;;;;;;;32.50;30.00;;;;;17.24;62.54;101544.59;4993584;28;47524;-82
2021/06/22 22:22:40;;;;;;;;;35.75;32.50;;;;;17.29;62.37;101545.59;4993706;28;45800;-82
2021/06/22 22:25:08;;;;;;;;;42.75;34.00;;;;;17.29;62.53;101541.28;4993562;28;45228;-80
2021/06/22 22:27:34;;;;;;;;;39.75;34.00;;;;;17.37;62.14;101541.50;4993599;28;45173;-80
2021/06/22 22:30:00;;;;;;;;;44.00;34.75;;;;;17.38;62.02;101540.66;4993220;28;46558;-80
2021/06/22 22:32:29;;;;;;;;;32.50;29.50;;;;;17.37;62.06;101543.22;4993185;28;45284;-80
2021/06/22 22:34:56;;;;;;;;;43.00;34.50;;;;;17.37;62.13;101543.22;4992999;28;45193;-80
2021/06/22 22:37:22;;;;;;;;;36.50;32.50;;;;;17.40;62.29;101545.91;4993727;28;45654;-81
2021/06/22 22:39:48;;;;;;;;;31.50;30.25;;;;;17.39;62.29;101552.88;4975428;28;46883;-80
2021/06/22 22:42:13;;;;;;;;;35.25;30.75;;;;;17.40;62.48;101543.31;4996839;28;45218;-79
2021/06/22 22:44:39;;;;;;;;;35.00;31.00;;;;;17.30;62.58;101537.81;4982114;28;45442;-81
2021/06/22 22:47:05;;;;;;;;;38.00;33.75;;;;;17.31;62.40;101541.31;4998322;28;45320;-79
2021/06/22 22:49:30;;;;;;;;;35.75;32.75;;;;;17.33;62.02;101537.88;4975393;28;46406;-80
2021/06/22 22:51:56;;;;;;;;;38.00;31.25;;;;;17.24;62.58;101539.38;4992685;28;45416;-79
2021/06/22 22:54:22;;;;;;;;;41.75;33.75;;;;;17.29;62.54;101540.38;4992942;28;45662;-81
2021/06/22 22:56:47;;;;;;;;;38.75;32.25;;;;;17.30;62.11;101537.81;4993293;27;45441;-80
2021/06/22 22:59:13;;;;;;;;;41.50;31.00;;;;;17.25;62.47;101556.84;4975252;28;46184;-79
2021/06/22 23:01:39;;;;;;;;;34.50;31.50;;;;;17.27;62.12;101548.19;4994058;28;45371;-81
2021/06/22 23:04:05;;;;;;;;;42.25;35.25;;;;;17.25;62.75;101552.47;4996077;27;45284;-82
2021/06/22 23:06:30;;;;;;;;;35.50;34.00;;;;;17.21;62.29;101555.88;4996606;28;45232;-80
2021/06/22 23:08:56;;;;;;;;;38.25;31.50;;;;;17.27;62.70;101540.31;4995305;27;45733;-80
2021/06/22 23:11:22;;;;;;;;;37.25;33.25;;;;;17.23;62.67;101548.06;4995922;28;45232;-81
2021/06/22 23:13:47;;;;;;;;;42.50;34.50;;;;;17.18;62.60;101550.53;4995881;27;45275;-81
2021/06/22 23:16:13;;;;;;;;;37.25;32.25;;;;;17.22;62.90;101548.88;4995759;28;45485;-79
2021/06/22 23:18:38;;;;;;;;;36.00;32.50;;;;;17.32;62.63;101543.97;4995948;27;46583;-81
2021/06/22 23:21:04;;;;;;;;;46.00;34.00;;;;;17.29;62.41;101554.34;4995458;27;45445;-81
2021/06/22 23:23:30;;;;;;;;;46.75;36.00;;;;;17.29;62.29;101546.50;4995812;28;45369;-81
2021/06/22 23:25:55;;;;;;;;;39.00;32.25;;;;;17.24;62.60;101555.94;4995801;28;45381;-81
2021/06/22 23:28:21;;;;;;;;;35.25;32.00;;;;;17.24;62.47;101550.69;4995614;28;46232;-81
2021/06/22 23:30:46;;;;;;;;;43.50;36.00;;;;;17.30;62.73;101550.91;4995275;27;45421;-81
2021/06/22 23:33:12;;;;;;;;;40.75;34.25;;;;;17.37;61.91;101551.97;4962044;28;45371;-78
2021/06/22 23:35:38;;;;;;;;;39.00;33.00;;;;;17.36;62.37;101551.91;4995900;28;45624;-80
2021/06/22 23:38:03;;;;;;;;;41.00;35.25;;;;;17.37;61.89;101551.06;4995033;28;45399;-80
2021/06/22 23:40:29;;;;;;;;;40.50;33.00;;;;;17.41;62.14;101552.94;4995460;27;45335;-81
2021/06/22 23:42:55;;;;;;;;;37.50;33.00;;;;;17.33;62.54;101550.09;4995539;28;45364;-79
2021/06/22 23:45:21;;;;;;;;;42.50;32.50;;;;;17.26;62.49;101549.03;4996145;28;45256;-78
2021/06/22 23:47:46;;;;;;;;;37.25;32.75;;;;;17.22;62.50;101549.78;4994933;28;46239;-79
2021/06/22 23:50:12;;;;;;;;;33.25;29.25;;;;;17.26;62.17;101554.25;4995572;28;45186;-80
2021/06/22 23:52:38;;;;;;;;;39.75;33.00;;;;;17.31;62.11;101543.91;4977861;28;45425;-80
2021/06/22 23:55:05;;;;;;;;;36.25;31.00;;;;;17.27;62.14;101545.56;4995232;28;45620;-80
2021/06/22 23:57:30;;;;;;;;;33.50;31.50;;;;;17.27;62.49;101547.31;4995020;28;45454;-80
2021/06/22 23:59:56;;;;;;;;;33.75;31.50;;;;;17.24;62.48;101542.84;4994669;28;45424;-81
